Time;durP1;ratioP1;P1;durP2;ratioP2;P2;SDS_P1;SDS_P2;PMS_P1;PMS_P2;Temp;Humidity;BMP_temperature;BMP_pressure;BME280_temperature;BME280_humidity;BME280_pressure;Samples;Min_cycle;Max_cycle;Signal;HPM_P1;HPM_P2
2022/10/01 00:02:53;;;;;;;11.70;5.85;;;23.60;60.70;;;;;;7679469;22;80917;-54
2022/10/01 00:05:54;;;;;;;10.38;5.93;;;23.60;60.60;;;;;;7652261;22;82674;-54
2022/10/01 00:08:54;;;;;;;11.35;6.65;;;23.60;60.50;;;;;;7680914;22;80981;-53
2022/10/01 00:11:55;;;;;;;8.95;5.68;;;23.60;60.60;;;;;;7678019;22;80818;-53
2022/10/01 00:14:55;;;;;;;8.80;5.97;;;23.60;60.40;;;;;;7679091;22;80740;-51
2022/10/01 00:17:56;;;;;;;9.70;6.00;;;23.60;60.50;;;;;;7678300;22;82759;-54
2022/10/01 00:20:56;;;;;;;10.07;5.97;;;23.60;60.50;;;;;;7679590;22;80313;-52
2022/10/01 00:23:57;;;;;;;10.90;5.97;;;23.60;60.40;;;;;;7679892;22;80336;-53
2022/10/01 00:26:57;;;;;;;9.93;5.22;;;23.60;60.50;;;;;;7679617;22;80987;-54
2022/10/01 00:29:58;;;;;;;9.55;5.55;;;23.60;60.40;;;;;;7679042;22;80432;-54
2022/10/01 00:32:58;;;;;;;13.48;5.90;;;23.60;60.40;;;;;;7677794;22;80717;-54
2022/10/01 00:35:59;;;;;;;7.60;4.88;;;23.60;60.40;;;;;;7681112;22;80655;-53
2022/10/01 00:38:59;;;;;;;9.13;6.13;;;23.60;60.40;;;;;;7679795;22;80448;-52
2022/10/01 00:42:00;;;;;;;8.20;5.13;;;23.60;60.30;;;;;;7678999;22;80288;-47
2022/10/01 00:45:01;;;;;;;11.27;5.75;;;23.60;60.30;;;;;;7682258;22;81983;-51
2022/10/01 00:48:01;;;;;;;9.02;5.78;;;23.50;60.40;;;;;;7674444;22;81338;-48
2022/10/01 00:51:03;;;;;;;9.60;6.38;;;23.50;60.40;;;;;;7679793;22;80576;-50
2022/10/01 00:54:04;;;;;;;10.10;5.53;;;23.50;60.60;;;;;;7678009;22;79929;-50
2022/10/01 00:57:04;;;;;;;8.15;5.47;;;23.50;60.60;;;;;;7679050;22;80370;-48
2022/10/01 01:00:05;;;;;;;8.00;5.75;;;23.50;60.40;;;;;;7680847;22;80302;-47
2022/10/01 01:03:05;;;;;;;9.35;5.63;;;23.60;60.50;;;;;;7679829;22;80208;-62
2022/10/01 01:06:08;;;;;;;7.63;5.22;;;23.50;60.40;;;;;;7678262;22;80290;-59
2022/10/01 01:09:08;;;;;;;7.82;5.28;;;23.50;60.50;;;;;;7678872;22;80433;-59
2022/10/01 01:12:09;;;;;;;10.55;5.75;;;23.50;60.60;;;;;;7680711;22;81780;-59
2022/10/01 01:15:09;;;;;;;8.18;5.20;;;23.50;61.10;;;;;;7680126;22;80281;-59
2022/10/01 01:18:10;;;;;;;7.68;5.20;;;23.50;60.40;;;;;;7681048;22;81828;-60
2022/10/01 01:21:11;;;;;;;9.00;5.78;;;23.50;60.40;;;;;;7680562;22;80723;-59
2022/10/01 01:24:11;;;;;;;7.05;4.80;;;23.50;60.40;;;;;;7680897;22;80790;-60
2022/10/01 01:27:15;;;;;;;10.05;5.53;;;23.50;60.40;;;;;;7678666;22;80979;-60
2022/10/01 01:30:15;;;;;;;9.55;5.47;;;23.50;60.40;;;;;;7651884;22;80897;-60
2022/10/01 01:33:16;;;;;;;7.57;5.38;;;23.50;60.40;;;;;;7678231;22;80218;-60
2022/10/01 01:36:16;;;;;;;8.48;5.38;;;23.50;60.30;;;;;;7680313;22;80126;-60
2022/10/01 01:39:17;;;;;;;8.95;5.28;;;23.50;60.30;;;;;;7680574;22;80599;-60
2022/10/01 01:42:20;;;;;;;9.65;5.97;;;23.50;60.30;;;;;;7679249;22;80630;-60
2022/10/01 01:45:20;;;;;;;6.40;4.80;;;23.50;60.40;;;;;;7677951;22;80157;-59
2022/10/01 01:48:21;;;;;;;6.53;4.75;;;23.50;60.40;;;;;;7679524;22;81671;-59
2022/10/01 01:51:22;;;;;;;8.70;5.57;;;23.50;60.40;;;;;;7679430;22;80708;-59
2022/10/01 01:54:24;;;;;;;7.38;5.00;;;23.50;60.40;;;;;;7677579;22;79838;-60
2022/10/01 01:57:25;;;;;;;8.35;5.00;;;23.50;60.40;;;;;;7680724;22;81030;-61
2022/10/01 02:00:26;;;;;;;7.50;5.03;;;23.50;60.40;;;;;;7653159;22;83484;-61
2022/10/01 02:03:28;;;;;;;7.43;4.93;;;23.50;60.50;;;;;;7681014;22;80449;-60
2022/10/01 02:06:28;;;;;;;6.53;4.45;;;23.50;60.30;;;;;;7681212;22;80906;-61
2022/10/01 02:09:29;;;;;;;9.43;4.75;;;23.50;60.40;;;;;;7680287;22;81035;-61
2022/10/01 02:12:30;;;;;;;8.18;5.18;;;23.50;60.40;;;;;;7679298;22;80826;-61
2022/10/01 02:15:34;;;;;;;13.10;4.47;;;23.50;60.40;;;;;;7651361;22;81744;-61
2022/10/01 02:18:35;;;;;;;7.97;5.32;;;23.50;60.40;;;;;;7677634;22;81158;-61
2022/10/01 02:21:35;;;;;;;7.95;4.97;;;23.50;60.50;;;;;;7680095;22;80560;-60
2022/10/01 02:24:36;;;;;;;8.20;5.00;;;23.50;61.30;;;;;;7679949;22;80380;-61
2022/10/01 02:27:37;;;;;;;7.75;5.05;;;23.50;60.70;;;;;;7680559;22;80548;-62
2022/10/01 02:30:37;;;;;;;7.93;5.03;;;23.50;60.70;;;;;;7680326;22;79951;-61
2022/10/01 02:33:38;;;;;;;7.78;4.90;;;23.50;60.60;;;;;;7670572;22;80837;-62
2022/10/01 02:36:40;;;;;;;7.95;4.95;;;23.50;60.70;;;;;;7674741;22;80265;-62
2022/10/01 02:39:40;;;;;;;7.68;5.05;;;23.50;60.60;;;;;;7680031;22;81727;-62
2022/10/01 02:42:41;;;;;;;7.80;5.53;;;23.50;60.60;;;;;;7677245;22;80189;-62
2022/10/01 02:45:41;;;;;;;6.20;4.32;;;23.50;60.60;;;;;;7675777;22;87287;-62
2022/10/01 02:48:42;;;;;;;8.07;4.63;;;23.50;60.50;;;;;;7679492;22;80095;-62
2022/10/01 02:51:42;;;;;;;8.77;5.03;;;23.50;60.40;;;;;;7680043;22;80533;-61
2022/10/01 02:54:42;;;;;;;5.78;4.60;;;23.50;60.40;;;;;;7678593;22;80623;-62
2022/10/01 02:57:43;;;;;;;7.63;4.97;;;23.50;60.40;;;;;;7679328;22;80319;-62
2022/10/01 03:00:43;;;;;;;6.78;4.82;;;23.50;60.30;;;;;;7674186;22;80270;-62
2022/10/01 03:03:44;;;;;;;6.60;4.45;;;23.50;60.30;;;;;;7653599;22;80234;-63
2022/10/01 03:06:44;;;;;;;6.20;4.45;;;23.50;60.20;;;;;;7676087;22;80300;-63
2022/10/01 03:09:45;;;;;;;7.13;4.55;;;23.50;60.20;;;;;;7681190;22;81001;-54
2022/10/01 03:12:45;;;;;;;8.85;5.10;;;23.50;60.10;;;;;;7677688;22;80426;-49
2022/10/01 03:15:46;;;;;;;6.75;4.60;;;23.50;60.20;;;;;;7675998;22;80838;-49
2022/10/01 03:18:46;;;;;;;7.78;4.93;;;23.50;60.00;;;;;;7675871;22;80652;-49
2022/10/01 03:21:47;;;;;;;9.27;5.03;;;23.50;59.90;;;;;;7680594;22;82556;-53
2022/10/01 03:24:47;;;;;;;9.60;4.72;;;23.50;60.10;;;;;;7679940;22;80150;-54
2022/10/01 03:27:48;;;;;;;7.32;4.47;;;23.50;60.40;;;;;;7675911;22;80286;-49
2022/10/01 03:30:48;;;;;;;7.03;4.13;;;23.50;59.70;;;;;;7675789;22;80459;-51
2022/10/01 03:33:49;;;;;;;6.45;4.40;;;23.50;59.80;;;;;;7679345;22;80309;-50
2022/10/01 03:36:51;;;;;;;7.47;4.40;;;23.50;59.60;;;;;;7678459;22;80570;-49
2022/10/01 03:39:52;;;;;;;9.18;4.75;;;23.50;60.20;;;;;;7677868;22;80539;-47
2022/10/01 03:42:52;;;;;;;8.85;5.13;;;23.50;59.30;;;;;;7675784;22;80411;-47
2022/10/01 03:45:53;;;;;;;7.20;4.70;;;23.50;59.20;;;;;;7679873;22;80419;-50
2022/10/01 03:48:53;;;;;;;6.82;4.40;;;23.50;59.10;;;;;;7677004;22;80844;-51
2022/10/01 03:51:53;;;;;;;8.32;5.00;;;23.50;59.00;;;;;;7675297;22;80865;-48
2022/10/01 03:54:54;;;;;;;9.10;4.55;;;23.50;59.00;;;;;;7676280;22;80592;-50
2022/10/01 03:57:54;;;;;;;6.63;4.75;;;23.50;58.90;;;;;;7675858;22;80917;-49
2022/10/01 04:00:55;;;;;;;6.03;4.22;;;23.60;59.60;;;;;;7677205;22;81744;-49
2022/10/01 04:03:56;;;;;;;7.05;4.88;;;23.60;58.90;;;;;;7674646;22;82188;-49
2022/10/01 04:06:56;;;;;;;6.32;4.63;;;23.60;58.80;;;;;;7677284;22;80492;-51
2022/10/01 04:09:57;;;;;;;6.40;4.70;;;23.60;58.90;;;;;;7677872;22;81018;-53
2022/10/01 04:12:58;;;;;;;7.70;5.03;;;23.60;58.80;;;;;;7681765;22;80135;-50
2022/10/01 04:15:58;;;;;;;7.18;4.82;;;23.60;58.70;;;;;;7675542;22;80137;-61
2022/10/01 04:18:59;;;;;;;10.52;5.85;;;23.60;59.40;;;;;;7678105;22;81049;-52
2022/10/01 04:21:59;;;;;;;7.00;4.60;;;23.60;58.90;;;;;;7678269;22;80802;-48
2022/10/01 04:25:01;;;;;;;8.57;5.00;;;23.60;59.20;;;;;;7680937;22;80409;-54
2022/10/01 04:28:02;;;;;;;7.53;4.55;;;23.60;59.30;;;;;;7677746;22;80219;-54
2022/10/01 04:34:51;;;;;;;6.93;5.05;;;23.70;59.50;;;;;;7677605;22;80385;-55
2022/10/01 04:37:42;;;;;;;8.45;5.15;;;23.70;59.50;;;;;;7679478;22;80263;-53
2022/10/01 04:40:42;;;;;;;7.95;4.80;;;23.70;59.60;;;;;;7679401;22;81112;-55
2022/10/01 04:43:43;;;;;;;10.38;5.55;;;23.70;59.60;;;;;;7681830;22;81122;-55
2022/10/01 04:46:43;;;;;;;7.85;5.32;;;23.70;59.60;;;;;;7680063;22;82295;-55
2022/10/01 04:49:44;;;;;;;9.93;5.25;;;23.70;59.80;;;;;;7680882;22;80950;-55
2022/10/01 04:52:45;;;;;;;12.55;5.60;;;23.70;59.80;;;;;;7678987;22;80290;-53
2022/10/01 04:55:45;;;;;;;14.63;5.15;;;23.80;60.10;;;;;;7672176;22;81357;-52
2022/10/01 04:58:47;;;;;;;11.07;5.05;;;23.70;60.00;;;;;;7670820;22;79950;-53
2022/10/01 05:01:47;;;;;;;13.68;5.65;;;23.80;60.20;;;;;;7659884;22;80066;-55
2022/10/01 05:04:48;;;;;;;12.63;5.53;;;23.70;60.30;;;;;;7666847;22;80159;-53
2022/10/01 05:07:48;;;;;;;12.13;5.60;;;23.80;60.20;;;;;;7671302;22;81675;-51
2022/10/01 05:10:49;;;;;;;9.40;5.60;;;23.80;60.30;;;;;;7663878;22;80392;-53
2022/10/01 05:13:49;;;;;;;8.18;5.28;;;23.80;60.50;;;;;;7672503;22;81158;-57
2022/10/01 05:16:50;;;;;;;7.70;5.28;;;23.90;60.50;;;;;;7672911;22;81162;-52
2022/10/01 05:19:50;;;;;;;8.65;5.53;;;23.80;60.40;;;;;;7675878;22;80361;-61
2022/10/01 05:22:51;;;;;;;9.10;5.45;;;23.80;60.20;;;;;;7676695;22;81105;-63
2022/10/01 05:25:51;;;;;;;9.77;6.30;;;23.90;60.30;;;;;;7675475;22;80965;-54
2022/10/01 05:28:52;;;;;;;9.68;5.40;;;23.90;60.30;;;;;;7660943;22;80683;-54
2022/10/01 05:31:53;;;;;;;13.73;6.32;;;23.90;59.90;;;;;;7656357;22;80649;-57
2022/10/01 05:34:54;;;;;;;9.13;5.45;;;23.90;59.70;;;;;;7665199;22;80859;-54
2022/10/01 05:37:54;;;;;;;10.10;6.43;;;23.90;59.70;;;;;;7660436;22;81213;-55
2022/10/01 05:40:55;;;;;;;11.90;6.13;;;24.00;59.80;;;;;;7669646;22;80415;-53
2022/10/01 05:43:55;;;;;;;9.32;5.82;;;23.90;59.70;;;;;;7671600;22;80896;-58
2022/10/01 05:46:56;;;;;;;12.93;6.35;;;24.00;60.00;;;;;;7640784;22;81993;-54
2022/10/01 05:49:56;;;;;;;13.93;6.90;;;24.00;59.90;;;;;;7672065;22;81602;-52
2022/10/01 05:52:58;;;;;;;12.93;6.35;;;24.00;60.10;;;;;;7671184;22;81676;-52
2022/10/01 05:56:01;;;;;;;28.00;8.35;;;24.10;59.80;;;;;;7676888;22;80241;-55
2022/10/01 05:59:02;;;;;;;18.10;7.03;;;24.10;60.20;;;;;;7676798;22;80520;-55
2022/10/01 06:02:02;;;;;;;15.18;7.18;;;24.10;59.90;;;;;;7681046;22;80312;-53
2022/10/01 06:05:03;;;;;;;13.85;7.38;;;24.10;60.70;;;;;;7679006;22;81880;-55
2022/10/01 06:08:03;;;;;;;19.48;8.48;;;24.10;60.70;;;;;;7650912;22;81601;-56
2022/10/01 06:11:04;;;;;;;23.30;8.75;;;24.10;60.70;;;;;;7679846;22;80839;-55
2022/10/01 06:14:04;;;;;;;22.25;9.63;;;24.10;61.40;;;;;;7679169;22;80313;-55
2022/10/01 06:17:05;;;;;;;19.77;9.88;;;24.10;61.40;;;;;;7676445;22;81518;-57
2022/10/01 06:20:06;;;;;;;25.73;11.00;;;24.00;61.30;;;;;;7680954;22;80257;-57
2022/10/01 06:23:08;;;;;;;27.02;9.85;;;24.00;61.70;;;;;;7663190;22;83168;-57
2022/10/01 06:26:09;;;;;;;20.83;10.70;;;24.10;61.70;;;;;;7647463;22;84278;-53
2022/10/01 06:29:09;;;;;;;22.23;10.32;;;24.00;61.70;;;;;;7674385;22;82778;-55
2022/10/01 06:32:13;;;;;;;25.40;10.40;;;24.00;61.50;;;;;;7675647;22;84189;-57
2022/10/01 06:35:13;;;;;;;23.20;9.93;;;24.00;61.50;;;;;;7672077;22;88110;-57
2022/10/01 06:38:13;;;;;;;22.65;9.93;;;24.00;61.50;;;;;;7673242;22;81751;-59
2022/10/01 06:41:14;;;;;;;21.73;10.82;;;24.00;61.30;;;;;;7674309;22;81542;-58
2022/10/01 06:44:15;;;;;;;23.25;10.40;;;24.00;61.40;;;;;;7668914;22;83086;-56
2022/10/01 06:47:15;;;;;;;19.83;10.52;;;24.00;61.50;;;;;;7668538;22;83938;-61
2022/10/01 06:50:15;;;;;;;21.90;10.55;;;24.10;61.40;;;;;;7676669;22;82847;-62
2022/10/01 06:53:16;;;;;;;19.70;9.85;;;24.00;61.10;;;;;;7674837;22;83449;-59
2022/10/01 06:56:16;;;;;;;19.88;10.13;;;24.00;61.70;;;;;;7679039;22;82882;-60
2022/10/01 06:59:17;;;;;;;22.83;9.80;;;24.00;62.00;;;;;;7675801;22;84617;-59
2022/10/01 07:02:17;;;;;;;19.75;9.90;;;24.00;62.00;;;;;;7667882;22;81652;-61
2022/10/01 07:05:18;;;;;;;27.48;10.60;;;24.10;62.30;;;;;;7647531;22;82227;-60
2022/10/01 07:08:19;;;;;;;23.75;9.70;;;24.10;62.60;;;;;;7657863;22;84717;-59
2022/10/01 07:11:20;;;;;;;26.95;10.40;;;24.10;62.80;;;;;;7651527;22;81681;-58
2022/10/01 07:14:20;;;;;;;22.85;9.98;;;24.10;62.90;;;;;;7649219;22;84196;-58
2022/10/01 07:17:21;;;;;;;25.95;10.77;;;24.10;63.10;;;;;;7625780;22;84157;-58
2022/10/01 07:20:21;;;;;;;19.98;9.65;;;24.10;63.00;;;;;;7660024;22;82893;-58
2022/10/01 07:23:23;;;;;;;19.55;9.65;;;24.10;63.00;;;;;;7655530;22;83701;-57
2022/10/01 07:26:23;;;;;;;16.88;9.48;;;24.10;62.90;;;;;;7668718;22;81186;-70
2022/10/01 07:29:24;;;;;;;19.10;8.93;;;24.10;63.30;;;;;;7657701;22;80765;-58
2022/10/01 07:32:24;;;;;;;34.28;9.32;;;24.10;63.80;;;;;;7661808;22;80849;-58
2022/10/01 07:35:25;;;;;;;21.80;10.02;;;24.10;63.90;;;;;;7653733;22;81997;-59
2022/10/01 07:38:25;;;;;;;20.70;9.82;;;24.10;63.60;;;;;;7666055;22;83606;-58
2022/10/01 07:41:26;;;;;;;18.05;8.93;;;24.10;63.70;;;;;;7668988;22;83777;-59
2022/10/01 07:44:28;;;;;;;17.75;9.52;;;24.10;63.60;;;;;;7672232;22;80925;-57
2022/10/01 07:47:28;;;;;;;14.07;8.80;;;24.10;63.70;;;;;;7666300;22;81545;-58
2022/10/01 07:50:29;;;;;;;16.17;8.50;;;24.10;63.50;;;;;;7672976;22;80060;-57
2022/10/01 07:53:30;;;;;;;24.25;8.15;;;24.10;63.40;;;;;;7648843;22;81954;-58
2022/10/01 07:56:30;;;;;;;19.83;9.25;;;24.10;63.30;;;;;;7649591;22;82642;-58
2022/10/01 07:59:32;;;;;;;14.10;8.02;;;24.10;62.70;;;;;;7678475;22;80321;-58
2022/10/01 08:02:34;;;;;;;14.70;7.63;;;24.10;62.70;;;;;;7677397;22;80393;-57
2022/10/01 08:05:34;;;;;;;16.25;8.20;;;24.10;62.50;;;;;;7678854;22;80118;-56
2022/10/01 08:08:35;;;;;;;21.73;9.98;;;24.00;62.50;;;;;;7670480;22;81663;-58
2022/10/01 08:11:36;;;;;;;392.65;147.15;;;24.00;62.80;;;;;;7672896;22;84065;-59
2022/10/01 08:14:37;;;;;;;527.17;219.70;;;24.10;62.80;;;;;;7669112;22;85831;-60
2022/10/01 08:17:38;;;;;;;643.95;303.38;;;24.00;62.60;;;;;;7641964;22;85406;-59
2022/10/01 08:20:38;;;;;;;772.88;369.13;;;23.90;63.00;;;;;;7663127;22;87071;-58
2022/10/01 08:23:39;;;;;;;880.70;419.58;;;23.90;63.10;;;;;;7667930;22;85278;-55
2022/10/01 08:26:39;;;;;;;864.63;409.35;;;23.90;63.40;;;;;;7668189;22;85287;-58
2022/10/01 08:29:42;;;;;;;734.10;351.10;;;23.90;63.40;;;;;;7667466;22;85298;-57
2022/10/01 08:32:42;;;;;;;676.75;325.35;;;24.00;63.20;;;;;;7666714;22;85486;-55
2022/10/01 08:35:43;;;;;;;644.72;295.98;;;24.10;63.00;;;;;;7663422;22;85547;-57
2022/10/01 08:38:43;;;;;;;607.90;291.75;;;24.10;63.00;;;;;;7667815;22;85992;-59
2022/10/01 08:41:44;;;;;;;686.90;327.05;;;24.00;62.80;;;;;;7674307;22;85704;-62
2022/10/01 08:44:44;;;;;;;631.40;312.40;;;24.00;63.20;;;;;;7675185;22;85301;-62
2022/10/01 08:47:45;;;;;;;627.83;305.38;;;24.00;63.10;;;;;;7673917;22;86708;-63
2022/10/01 08:50:45;;;;;;;626.88;302.17;;;24.00;63.30;;;;;;7669845;22;85986;-61
2022/10/01 08:53:46;;;;;;;603.33;286.48;;;23.90;63.20;;;;;;7674482;22;85915;-65
2022/10/01 08:56:47;;;;;;;541.95;254.65;;;24.00;63.30;;;;;;7649752;22;86081;-63
2022/10/01 08:59:47;;;;;;;533.90;239.07;;;24.00;63.10;;;;;;7657357;22;85881;-59
2022/10/01 09:02:48;;;;;;;522.28;231.35;;;24.00;63.00;;;;;;7669795;22;86234;-59
2022/10/01 09:05:50;;;;;;;483.65;207.20;;;24.10;63.10;;;;;;7668666;22;86474;-59
2022/10/01 09:08:50;;;;;;;461.98;190.68;;;24.00;63.00;;;;;;7671082;22;87054;-58
2022/10/01 09:11:51;;;;;;;421.10;183.70;;;24.10;63.10;;;;;;7672100;22;87579;-59
2022/10/01 09:14:51;;;;;;;407.73;178.55;;;24.10;63.00;;;;;;7668839;22;85511;-58
2022/10/01 09:17:52;;;;;;;402.23;167.55;;;24.10;63.00;;;;;;7670963;22;87193;-58
2022/10/01 09:20:52;;;;;;;397.60;160.65;;;24.10;63.00;;;;;;7670745;22;86710;-58
2022/10/01 09:23:53;;;;;;;388.80;158.45;;;24.10;63.10;;;;;;7675133;22;86061;-58
2022/10/01 09:26:54;;;;;;;345.40;143.43;;;24.10;63.00;;;;;;7675075;22;85428;-59
2022/10/01 09:29:54;;;;;;;341.23;146.63;;;24.10;63.00;;;;;;7673663;22;87173;-59
2022/10/01 09:32:55;;;;;;;339.25;136.82;;;24.10;63.00;;;;;;7671784;22;87008;-57
2022/10/01 09:35:55;;;;;;;324.85;133.35;;;24.10;63.10;;;;;;7675643;22;86280;-69
2022/10/01 09:38:56;;;;;;;298.15;126.93;;;24.10;63.20;;;;;;7674301;22;85478;-65
2022/10/01 09:41:57;;;;;;;286.48;124.35;;;24.10;63.10;;;;;;7672557;22;85201;-62
2022/10/01 09:44:57;;;;;;;304.95;119.45;;;24.10;63.20;;;;;;7669183;22;85704;-63
2022/10/01 09:47:58;;;;;;;257.30;117.50;;;24.10;63.10;;;;;;7667433;22;87630;-63
2022/10/01 09:50:59;;;;;;;272.15;114.95;;;24.10;63.20;;;;;;7641702;22;88160;-63
2022/10/01 09:54:00;;;;;;;256.73;108.80;;;24.10;63.20;;;;;;7672010;22;86214;-62
2022/10/01 09:57:00;;;;;;;241.13;103.63;;;24.10;63.30;;;;;;7674078;22;86890;-61
2022/10/01 10:00:00;;;;;;;236.77;102.88;;;24.10;63.00;;;;;;7673334;22;87048;-61
2022/10/01 10:03:01;;;;;;;235.32;98.68;;;24.10;62.70;;;;;;7670867;22;85703;-62
2022/10/01 10:06:01;;;;;;;229.63;95.35;;;24.10;62.40;;;;;;7679200;22;85339;-62
2022/10/01 10:09:02;;;;;;;213.60;92.22;;;24.10;62.40;;;;;;7677782;22;83078;-62
2022/10/01 10:12:02;;;;;;;214.60;92.45;;;24.00;62.30;;;;;;7677891;22;83153;-59
2022/10/01 10:15:03;;;;;;;201.57;87.85;;;24.00;62.40;;;;;;7676091;22;83318;-59
2022/10/01 10:18:05;;;;;;;185.35;84.03;;;24.00;62.50;;;;;;7679498;22;83262;-58
2022/10/01 10:21:09;;;;;;;179.98;78.65;;;24.00;62.50;;;;;;7674848;22;84228;-58
2022/10/01 10:24:10;;;;;;;162.05;73.95;;;23.90;62.40;;;;;;7670455;22;83435;-58
2022/10/01 10:27:10;;;;;;;145.57;68.97;;;23.90;62.60;;;;;;7675924;22;84479;-58
2022/10/01 10:30:11;;;;;;;147.10;65.60;;;23.90;62.60;;;;;;7676858;22;82837;-58
2022/10/01 10:33:11;;;;;;;132.80;60.58;;;23.90;62.60;;;;;;7667348;22;83890;-59
2022/10/01 10:36:12;;;;;;;121.50;55.72;;;23.90;62.70;;;;;;7672880;22;82996;-60
2022/10/01 10:39:12;;;;;;;133.48;54.03;;;23.90;62.80;;;;;;7674716;22;83431;-58
2022/10/01 10:42:13;;;;;;;116.05;52.15;;;23.90;62.70;;;;;;7672414;22;83650;-59
2022/10/01 10:45:14;;;;;;;116.45;50.65;;;23.90;62.80;;;;;;7674806;22;83396;-59
2022/10/01 10:48:15;;;;;;;99.35;46.50;;;23.90;62.80;;;;;;7677292;22;83040;-59
2022/10/01 10:51:16;;;;;;;101.65;46.35;;;23.90;63.00;;;;;;7679034;22;82929;-59
2022/10/01 10:54:17;;;;;;;101.97;46.60;;;23.90;63.10;;;;;;7674555;22;82876;-60
2022/10/01 10:57:20;;;;;;;90.72;42.67;;;23.90;63.30;;;;;;7675443;22;82728;-60
2022/10/01 11:00:20;;;;;;;82.43;39.80;;;23.90;63.50;;;;;;7676792;22;84187;-60
2022/10/01 11:03:20;;;;;;;83.32;36.20;;;23.90;63.50;;;;;;7672559;22;82931;-59
2022/10/01 11:06:21;;;;;;;84.18;35.78;;;23.90;63.50;;;;;;7678475;22;83523;-59
2022/10/01 11:09:21;;;;;;;81.05;36.40;;;23.90;63.80;;;;;;7669048;22;83302;-60
2022/10/01 11:12:22;;;;;;;80.82;34.83;;;23.90;63.90;;;;;;7670795;22;84596;-60
2022/10/01 11:15:22;;;;;;;78.93;33.55;;;23.90;64.00;;;;;;7669137;22;84025;-59
2022/10/01 11:18:23;;;;;;;65.60;30.40;;;24.00;64.10;;;;;;7667261;22;83488;-59
2022/10/01 11:21:24;;;;;;;64.35;28.90;;;24.00;64.10;;;;;;7660209;22;83109;-61
2022/10/01 11:24:24;;;;;;;61.67;27.13;;;24.00;64.10;;;;;;7665575;22;83278;-61
2022/10/01 11:27:26;;;;;;;52.63;25.35;;;24.00;64.20;;;;;;7669410;22;83730;-59
2022/10/01 11:30:26;;;;;;;52.90;24.60;;;24.00;64.60;;;;;;7670498;22;85606;-62
2022/10/01 11:33:27;;;;;;;51.30;23.80;;;24.00;65.30;;;;;;7674318;22;83088;-61
2022/10/01 11:36:27;;;;;;;48.10;22.20;;;24.10;65.10;;;;;;7679782;22;83012;-60
2022/10/01 11:39:28;;;;;;;47.15;21.50;;;24.00;65.30;;;;;;7678247;22;82889;-60
2022/10/01 11:42:30;;;;;;;48.60;22.02;;;24.10;65.50;;;;;;7676694;22;83180;-58
2022/10/01 11:45:31;;;;;;;38.88;18.65;;;24.10;66.20;;;;;;7677543;22;83402;-60
2022/10/01 11:48:31;;;;;;;39.67;19.58;;;24.10;67.60;;;;;;7678399;22;82923;-59
2022/10/01 11:51:32;;;;;;;35.40;16.85;;;24.10;66.50;;;;;;7672855;22;82975;-60
2022/10/01 11:54:32;;;;;;;34.03;16.02;;;24.10;66.30;;;;;;7675832;22;82998;-60
2022/10/01 12:00:52;;;;;;;33.28;15.85;;;24.20;66.50;;;;;;7670108;22;83834;-62
2022/10/01 12:03:53;;;;;;;27.70;14.45;;;24.10;66.50;;;;;;7674660;22;82949;-62
2022/10/01 12:06:53;;;;;;;25.00;13.68;;;24.20;66.60;;;;;;7679246;22;82918;-61
2022/10/01 12:09:54;;;;;;;26.15;14.93;;;24.10;66.60;;;;;;7669479;22;83555;-61
2022/10/01 12:12:54;;;;;;;27.20;15.65;;;24.10;66.80;;;;;;7669581;22;84235;-62
2022/10/01 12:15:55;;;;;;;29.88;15.07;;;24.10;67.00;;;;;;7671135;22;82855;-61
2022/10/01 12:18:55;;;;;;;23.83;13.30;;;24.20;67.20;;;;;;7676381;22;83298;-62
2022/10/01 12:21:56;;;;;;;28.67;12.15;;;24.10;67.20;;;;;;7670058;22;82649;-59
2022/10/01 12:24:56;;;;;;;20.42;11.60;;;24.20;66.90;;;;;;7671211;22;83052;-62
2022/10/01 12:27:57;;;;;;;23.77;12.32;;;24.20;66.90;;;;;;7675412;22;83366;-63
2022/10/01 12:30:57;;;;;;;18.50;10.95;;;24.10;68.20;;;;;;7675378;22;82820;-61
2022/10/01 12:33:58;;;;;;;20.58;11.40;;;24.10;68.00;;;;;;7678951;22;83219;-61
2022/10/01 12:37:03;;;;;;;17.60;9.93;;;24.20;67.80;;;;;;7678452;22;82718;-64
2022/10/01 12:40:03;;;;;;;17.13;9.70;;;24.20;67.50;;;;;;7677214;22;81769;-58
2022/10/01 12:43:04;;;;;;;17.90;10.05;;;24.20;66.60;;;;;;7648944;22;80613;-57
2022/10/01 12:46:04;;;;;;;16.38;9.32;;;24.20;66.60;;;;;;7669617;22;82593;-58
2022/10/01 12:49:06;;;;;;;19.00;8.50;;;24.20;66.40;;;;;;7670487;22;82731;-58
2022/10/01 12:52:06;;;;;;;14.80;9.23;;;24.20;66.30;;;;;;7674216;22;80645;-58
2022/10/01 12:55:07;;;;;;;14.32;9.10;;;24.20;66.20;;;;;;7675639;22;80610;-58
2022/10/01 12:58:08;;;;;;;20.45;8.55;;;24.20;66.20;;;;;;7674116;22;81294;-52
2022/10/01 13:01:09;;;;;;;16.42;7.93;;;24.20;66.10;;;;;;7677641;22;80767;-50
2022/10/01 13:04:11;;;;;;;13.88;8.85;;;24.30;66.00;;;;;;7672867;22;80235;-52
2022/10/01 13:07:11;;;;;;;15.15;7.57;;;24.30;65.80;;;;;;7674072;22;80637;-51
2022/10/01 13:10:13;;;;;;;15.38;8.13;;;24.30;65.90;;;;;;7674343;22;80868;-53
2022/10/01 13:13:13;;;;;;;16.02;8.85;;;24.30;65.60;;;;;;7676662;22;80344;-52
2022/10/01 13:16:14;;;;;;;16.05;7.35;;;24.30;65.40;;;;;;7678448;22;80504;-60
2022/10/01 13:19:14;;;;;;;14.27;6.97;;;24.30;65.40;;;;;;7682170;22;81602;-61
2022/10/01 13:22:15;;;;;;;16.05;7.75;;;24.30;65.20;;;;;;7675399;22;80610;-60
2022/10/01 13:25:15;;;;;;;11.95;7.88;;;24.30;65.10;;;;;;7680784;22;80443;-60
2022/10/01 13:28:16;;;;;;;16.17;7.90;;;24.30;65.20;;;;;;7675300;22;80409;-58
2022/10/01 13:31:18;;;;;;;30.10;8.02;;;24.30;65.50;;;;;;7674720;22;80347;-58
2022/10/01 13:34:18;;;;;;;11.70;7.20;;;24.30;65.40;;;;;;7679183;22;80931;-59
2022/10/01 13:37:18;;;;;;;18.05;7.28;;;24.30;65.50;;;;;;7680577;22;80585;-60
2022/10/01 13:40:19;;;;;;;12.88;7.63;;;24.30;65.70;;;;;;7628356;22;82141;-61
2022/10/01 13:43:20;;;;;;;14.48;7.30;;;24.30;65.50;;;;;;7681239;22;80979;-60
2022/10/01 13:46:20;;;;;;;13.15;7.43;;;24.30;65.60;;;;;;7678429;22;81507;-59
2022/10/01 13:49:20;;;;;;;13.68;6.25;;;24.30;65.40;;;;;;7679689;22;80137;-59
2022/10/01 13:52:21;;;;;;;17.77;7.60;;;24.30;65.40;;;;;;7679744;22;82427;-62
2022/10/01 13:55:22;;;;;;;14.93;6.70;;;24.30;65.30;;;;;;7680914;22;80819;-65
2022/10/01 13:58:22;;;;;;;11.75;6.70;;;24.30;65.50;;;;;;7680954;22;79990;-63
2022/10/01 14:01:23;;;;;;;10.55;6.65;;;24.30;65.60;;;;;;7683362;22;80379;-63
2022/10/01 14:04:23;;;;;;;9.80;6.68;;;24.30;65.60;;;;;;7681586;22;80558;-61
2022/10/01 14:07:24;;;;;;;9.45;6.55;;;24.30;65.50;;;;;;7681773;22;80787;-62
2022/10/01 14:10:25;;;;;;;13.27;7.28;;;24.30;65.50;;;;;;7682262;22;81136;-61
2022/10/01 14:16:44;;;;;;;11.27;6.70;;;24.30;65.50;;;;;;7680379;22;80402;-62
2022/10/01 14:19:54;;;;;;;14.25;6.28;;;24.20;66.20;;;;;;7684159;22;80312;-62
2022/10/01 14:22:55;;;;;;;11.18;6.68;;;24.20;65.80;;;;;;7673978;22;80879;-60
2022/10/01 14:25:55;;;;;;;10.68;6.03;;;24.20;65.70;;;;;;7674281;22;81189;-61
2022/10/01 14:28:55;;;;;;;19.25;6.60;;;24.20;65.70;;;;;;7651170;22;80384;-60
2022/10/01 14:31:56;;;;;;;11.38;5.75;;;24.20;65.50;;;;;;7675966;22;80579;-60
2022/10/01 14:34:56;;;;;;;33.67;16.50;;;24.20;65.90;;;;;;7673877;22;80223;-60
2022/10/01 14:37:58;;;;;;;74.38;35.33;;;24.20;65.80;;;;;;7674056;22;83158;-61
2022/10/01 14:40:58;;;;;;;123.38;57.85;;;24.20;65.80;;;;;;7671546;22;83916;-61
2022/10/01 14:43:59;;;;;;;190.00;91.60;;;24.20;65.90;;;;;;7662939;22;83396;-59
2022/10/01 14:46:59;;;;;;;275.60;128.93;;;24.20;65.70;;;;;;7671805;22;82729;-60
2022/10/01 14:50:00;;;;;;;231.35;113.18;;;24.20;65.90;;;;;;7669584;22;86352;-58
2022/10/01 14:53:00;;;;;;;221.50;106.00;;;24.20;65.90;;;;;;7667441;22;86232;-61
2022/10/01 14:56:01;;;;;;;189.38;90.82;;;24.20;65.70;;;;;;7619869;22;86700;-58
2022/10/01 14:59:02;;;;;;;160.48;79.00;;;24.10;65.80;;;;;;7675943;22;85241;-58
2022/10/01 15:02:02;;;;;;;162.68;71.95;;;24.10;65.80;;;;;;7676405;22;83532;-60
2022/10/01 15:05:03;;;;;;;134.95;62.35;;;24.20;65.90;;;;;;7677613;22;82908;-61
2022/10/01 15:08:03;;;;;;;122.30;55.47;;;24.10;66.00;;;;;;7670993;22;83041;-51
2022/10/01 15:11:04;;;;;;;110.88;52.92;;;24.10;66.60;;;;;;7670823;22;82981;-57
2022/10/01 15:14:04;;;;;;;102.85;47.47;;;24.10;66.70;;;;;;7676986;22;83199;-49
2022/10/01 15:17:05;;;;;;;80.85;40.00;;;24.10;66.70;;;;;;7677134;22;85191;-57
2022/10/01 15:20:06;;;;;;;89.55;39.80;;;24.10;67.10;;;;;;7676830;22;82708;-52
2022/10/01 15:23:06;;;;;;;81.15;36.65;;;24.10;67.30;;;;;;7672919;22;83227;-53
2022/10/01 15:26:07;;;;;;;78.57;33.67;;;24.10;67.70;;;;;;7678146;22;83115;-59
2022/10/01 15:29:08;;;;;;;70.78;31.38;;;24.10;67.40;;;;;;7676528;22;83011;-60
2022/10/01 15:32:08;;;;;;;67.13;28.52;;;24.10;67.40;;;;;;7677461;22;82999;-58
2022/10/01 15:35:08;;;;;;;57.45;27.58;;;24.10;67.50;;;;;;7671276;22;82963;-59